Furacão IVAN 2004: trajetória, intensidade e histórico
24/09/2004, 06:00:00
2/09/2004, 18:00:00 – 24/09/2004, 06:00:00
Trajetória histórica
Acompanhe a evolução e o deslocamento de Furacão IVAN em 2004, com a trajetória completa registrada, ventos máximos sustentados de 145 nós, pressão central mínima e cronologia detalhada.
| Data | Hora | Tipo | Ventokm/h | PressãohPa |
|---|---|---|---|---|
| 24/09 | 06:00 | TDDepressão tropical | 45 | 1009 |
| 24/09 | 03:00 | TDDepressão tropical | 55 | 1005 |
| 24/09 | 02:00 | TDDepressão tropical | 55 | 1004 |
| 24/09 | 00:00 | TDDepressão tropical | 55 | 1003 |
| 23/09 | 21:00 | TSTempestade tropical | 65 | 1003 |
| 23/09 | 18:00 | TSTempestade tropical | 75 | 1003 |
| 23/09 | 15:00 | TSTempestade tropical | 85 | 1001 |
| 23/09 | 12:00 | TSTempestade tropical | 95 | 998 |
| 23/09 | 09:00 | TSTempestade tropical | 80 | 1003 |
| 23/09 | 06:00 | TSTempestade tropical | 65 | 1007 |
| 23/09 | 03:00 | TSTempestade tropical | 65 | 1007 |
| 23/09 | 00:00 | TSTempestade tropical | 65 | 1007 |
| 22/09 | 21:00 | TDDepressão tropical | 60 | 1008 |
| 22/09 | 18:00 | TDDepressão tropical | 55 | 1008 |
| 22/09 | 15:00 | RBaixa remanescente | 50 | 1009 |
| 22/09 | 12:00 | RBaixa remanescente | 45 | 1010 |
| 22/09 | 09:00 | RBaixa remanescente | 45 | 1010 |
| 22/09 | 06:00 | RBaixa remanescente | 45 | 1010 |
| 22/09 | 03:00 | RBaixa remanescente | 45 | 1010 |
| 22/09 | 00:00 | RBaixa remanescente | 45 | 1010 |
| 21/09 | 21:00 | RBaixa remanescente | 45 | 1010 |
| 21/09 | 18:00 | RBaixa remanescente | 45 | 1010 |
| 21/09 | 15:00 | EXCiclone extratropical | 45 | 1010 |
| 21/09 | 12:00 | EXCiclone extratropical | 45 | 1009 |
| 21/09 | 09:00 | EXCiclone extratropical | 45 | 1009 |
| 21/09 | 06:00 | EXCiclone extratropical | 45 | 1009 |
| 21/09 | 03:00 | EXCiclone extratropical | 45 | 1009 |
| 21/09 | 00:00 | EXCiclone extratropical | 45 | 1009 |
| 20/09 | 21:00 | EXCiclone extratropical | 45 | 1009 |
| 20/09 | 18:00 | EXCiclone extratropical | 45 | 1009 |
| 20/09 | 15:00 | EXCiclone extratropical | 50 | 1009 |
| 20/09 | 12:00 | EXCiclone extratropical | 55 | 1009 |
| 20/09 | 09:00 | EXCiclone extratropical | 60 | 1009 |
| 20/09 | 06:00 | EXCiclone extratropical | 65 | 1008 |
| 20/09 | 03:00 | EXCiclone extratropical | 65 | 1008 |
| 20/09 | 00:00 | EXCiclone extratropical | 65 | 1008 |
| 19/09 | 21:00 | EXCiclone extratropical | 65 | 1008 |
| 19/09 | 18:00 | EXCiclone extratropical | 65 | 1008 |
| 19/09 | 15:00 | EXCiclone extratropical | 65 | 1008 |
| 19/09 | 12:00 | EXCiclone extratropical | 65 | 1008 |
| 19/09 | 09:00 | EXCiclone extratropical | 65 | 1007 |
| 19/09 | 06:00 | EXCiclone extratropical | 65 | 1005 |
| 19/09 | 03:00 | EXCiclone extratropical | 65 | 1004 |
| 19/09 | 00:00 | EXCiclone extratropical | 65 | 1003 |
| 18/09 | 21:00 | EXCiclone extratropical | 55 | 1003 |
| 18/09 | 18:00 | EXCiclone extratropical | 45 | 1002 |
| 18/09 | 15:00 | TDDepressão tropical | 35 | 1001 |
| 18/09 | 12:00 | TDDepressão tropical | 30 | 1000 |
| 18/09 | 09:00 | TDDepressão tropical | 30 | 999 |
| 18/09 | 06:00 | TDDepressão tropical | 30 | 998 |
| 18/09 | 03:00 | TDDepressão tropical | 35 | 999 |
| 18/09 | 00:00 | TDDepressão tropical | 35 | 999 |
| 17/09 | 21:00 | TDDepressão tropical | 35 | 998 |
| 17/09 | 18:00 | TDDepressão tropical | 35 | 996 |
| 17/09 | 15:00 | TDDepressão tropical | 35 | 995 |
| 17/09 | 12:00 | TDDepressão tropical | 35 | 994 |
| 17/09 | 09:00 | TDDepressão tropical | 45 | 993 |
| 17/09 | 06:00 | TDDepressão tropical | 45 | 991 |
| 17/09 | 03:00 | TDDepressão tropical | 50 | 989 |
| 17/09 | 00:00 | TDDepressão tropical | 55 | 986 |
| 16/09 | 21:00 | TSTempestade tropical | 75 | 981 |
| 16/09 | 18:00 | TSTempestade tropical | 95 | 975 |
| 16/09 | 15:00 | TSTempestade tropical | 110 | 970 |
| 16/09 | 12:00 | HFuracão | 130 | 965 |
| 16/09 | 09:00 | HFuracão | 165 | 954 |
| 16/09 | 06:50 | MHFuracão de grande intensidade | 195 | 946 |
| 16/09 | 06:00 | MHFuracão de grande intensidade | 195 | 943 |
| 16/09 | 03:00 | HFuracão | 200 | 937 |
| 16/09 | 00:00 | MHFuracão de grande intensidade | 205 | 931 |
| 15/09 | 21:00 | HFuracão | 210 | 934 |
| 15/09 | 18:00 | MHFuracão de grande intensidade | 215 | 937 |
| 15/09 | 15:00 | HFuracão | 215 | 938 |
| 15/09 | 12:00 | MHFuracão de grande intensidade | 215 | 939 |
| 15/09 | 09:00 | HFuracão | 220 | 937 |
| 15/09 | 06:00 | MHFuracão de grande intensidade | 220 | 935 |
| 15/09 | 03:00 | HFuracão | 220 | 932 |
| 15/09 | 00:00 | MHFuracão de grande intensidade | 220 | 928 |
| 14/09 | 21:00 | HFuracão | 220 | 930 |
| 14/09 | 18:00 | MHFuracão de grande intensidade | 220 | 931 |
| 14/09 | 15:00 | HFuracão | 230 | 931 |
| 14/09 | 12:00 | MHFuracão de grande intensidade | 230 | 930 |
| 14/09 | 09:00 | HFuracão | 245 | 927 |
| 14/09 | 06:00 | MHFuracão de grande intensidade | 260 | 924 |
| 14/09 | 03:00 | HFuracão | 260 | 919 |
| 14/09 | 01:00 | MHFuracão de grande intensidade | 260 | 916 |
| 14/09 | 00:00 | MHFuracão de grande intensidade | 260 | 914 |
| 13/09 | 21:00 | MHFuracão de grande intensidade | 260 | 910 |
| 13/09 | 18:00 | MHFuracão de grande intensidade | 260 | 912 |
| 13/09 | 15:00 | HFuracão | 260 | 914 |
| 13/09 | 12:00 | MHFuracão de grande intensidade | 260 | 915 |
| 13/09 | 09:00 | HFuracão | 260 | 918 |
| 13/09 | 06:00 | MHFuracão de grande intensidade | 260 | 920 |
| 13/09 | 03:00 | HFuracão | 260 | 918 |
| 13/09 | 00:00 | MHFuracão de grande intensidade | 260 | 916 |
| 12/09 | 21:00 | HFuracão | 250 | 918 |
| 12/09 | 18:00 | MHFuracão de grande intensidade | 240 | 920 |
| 12/09 | 15:00 | HFuracão | 240 | 920 |
| 12/09 | 14:15 | MHFuracão de grande intensidade | 240 | 920 |
| 12/09 | 12:00 | MHFuracão de grande intensidade | 250 | 919 |
| 12/09 | 09:00 | HFuracão | 250 | 917 |
| 12/09 | 06:00 | MHFuracão de grande intensidade | 250 | 915 |
| 12/09 | 03:00 | HFuracão | 260 | 913 |
| 12/09 | 00:00 | MHFuracão de grande intensidade | 270 | 910 |
| 11/09 | 21:00 | HFuracão | 270 | 915 |
| 11/09 | 18:00 | MHFuracão de grande intensidade | 270 | 920 |
| 11/09 | 15:00 | HFuracão | 250 | 923 |
| 11/09 | 12:00 | MHFuracão de grande intensidade | 230 | 925 |
| 11/09 | 09:00 | HFuracão | 235 | 924 |
| 11/09 | 06:00 | MHFuracão de grande intensidade | 240 | 923 |
| 11/09 | 03:30 | MHFuracão de grande intensidade | 240 | 924 |
| 11/09 | 03:00 | HFuracão | 245 | 924 |
| 11/09 | 00:00 | MHFuracão de grande intensidade | 250 | 926 |
| 10/09 | 21:00 | HFuracão | 235 | 933 |
| 10/09 | 18:00 | MHFuracão de grande intensidade | 220 | 940 |
| 10/09 | 15:00 | HFuracão | 230 | 937 |
| 10/09 | 12:00 | MHFuracão de grande intensidade | 230 | 934 |
| 10/09 | 09:00 | HFuracão | 230 | 932 |
| 10/09 | 06:00 | MHFuracão de grande intensidade | 230 | 930 |
| 10/09 | 03:00 | HFuracão | 235 | 927 |
| 10/09 | 00:00 | MHFuracão de grande intensidade | 240 | 923 |
| 09/09 | 21:00 | HFuracão | 240 | 922 |
| 09/09 | 18:00 | MHFuracão de grande intensidade | 240 | 921 |
| 09/09 | 15:00 | HFuracão | 250 | 920 |
| 09/09 | 12:00 | MHFuracão de grande intensidade | 260 | 919 |
| 09/09 | 09:00 | HFuracão | 260 | 922 |
| 09/09 | 06:00 | MHFuracão de grande intensidade | 260 | 925 |
| 09/09 | 03:00 | HFuracão | 250 | 932 |
| 09/09 | 00:00 | MHFuracão de grande intensidade | 240 | 938 |
| 08/09 | 21:00 | HFuracão | 230 | 944 |
| 08/09 | 18:00 | MHFuracão de grande intensidade | 220 | 950 |
| 08/09 | 15:00 | HFuracão | 220 | 953 |
| 08/09 | 12:00 | MHFuracão de grande intensidade | 220 | 955 |
| 08/09 | 09:00 | HFuracão | 220 | 951 |
| 08/09 | 06:00 | MHFuracão de grande intensidade | 220 | 946 |
| 08/09 | 03:00 | HFuracão | 220 | 948 |
| 08/09 | 00:00 | MHFuracão de grande intensidade | 215 | 950 |
| 07/09 | 21:30 | MHFuracão de grande intensidade | 205 | 952 |
| 07/09 | 21:00 | HFuracão | 200 | 953 |
| 07/09 | 18:00 | MHFuracão de grande intensidade | 195 | 956 |
| 07/09 | 15:00 | HFuracão | 190 | 960 |
| 07/09 | 12:00 | MHFuracão de grande intensidade | 185 | 963 |
| 07/09 | 09:00 | HFuracão | 180 | 964 |
| 07/09 | 06:00 | HFuracão | 175 | 965 |
| 07/09 | 03:00 | HFuracão | 170 | 965 |
| 07/09 | 00:00 | HFuracão | 165 | 964 |
| 06/09 | 21:00 | HFuracão | 165 | 967 |
| 06/09 | 18:00 | HFuracão | 165 | 969 |
| 06/09 | 15:00 | HFuracão | 185 | 962 |
| 06/09 | 12:00 | MHFuracão de grande intensidade | 205 | 955 |
| 06/09 | 09:00 | HFuracão | 205 | 953 |
| 06/09 | 06:00 | MHFuracão de grande intensidade | 205 | 950 |
| 06/09 | 03:00 | HFuracão | 210 | 949 |
| 06/09 | 00:00 | MHFuracão de grande intensidade | 215 | 948 |
| 05/09 | 21:00 | HFuracão | 210 | 952 |
| 05/09 | 18:00 | MHFuracão de grande intensidade | 205 | 955 |
| 05/09 | 15:00 | HFuracão | 180 | 966 |
| 05/09 | 12:00 | HFuracão | 155 | 977 |
| 05/09 | 09:00 | HFuracão | 140 | 982 |
| 05/09 | 06:00 | HFuracão | 120 | 987 |
| 05/09 | 03:00 | TSTempestade tropical | 115 | 989 |
| 05/09 | 00:00 | TSTempestade tropical | 110 | 991 |
| 04/09 | 21:00 | TSTempestade tropical | 105 | 993 |
| 04/09 | 18:00 | TSTempestade tropical | 100 | 994 |
| 04/09 | 15:00 | TSTempestade tropical | 100 | 996 |
| 04/09 | 12:00 | TSTempestade tropical | 95 | 997 |
| 04/09 | 09:00 | TSTempestade tropical | 95 | 997 |
| 04/09 | 06:00 | TSTempestade tropical | 95 | 997 |
| 04/09 | 03:00 | TSTempestade tropical | 90 | 998 |
| 04/09 | 00:00 | TSTempestade tropical | 85 | 999 |
| 03/09 | 21:00 | TSTempestade tropical | 85 | 1000 |
| 03/09 | 18:00 | TSTempestade tropical | 85 | 1000 |
| 03/09 | 15:00 | TSTempestade tropical | 80 | 1002 |
| 03/09 | 12:00 | TSTempestade tropical | 75 | 1003 |
| 03/09 | 09:00 | TSTempestade tropical | 70 | 1004 |
| 03/09 | 06:00 | TSTempestade tropical | 65 | 1005 |
| 03/09 | 03:00 | TDDepressão tropical | 60 | 1006 |
| 03/09 | 00:00 | TDDepressão tropical | 55 | 1007 |
| 02/09 | 21:00 | TDDepressão tropical | 50 | 1008 |
| 02/09 | 18:00 | TDDepressão tropical | 45 | 1009 |
Cronologia de localização
179 Registos de localizaçãoDesastres naturais próximos
Detalhes do evento
Ligações das fontes
Também pode encontrar estas ferramentas úteis
A localização, a extensão e o estado de cada evento podem ser atualizados em momentos diferentes consoante a fonte. Confirme decisões importantes junto das autoridades oficiais de emergência.
Os registos de eventos provêm da NASA EONET e são complementados por registos de deslizamentos de terra do USGS FDSN. As análises e previsões de tempestades podem utilizar a NOAA NHC ou o JTWC, com registos históricos ATCF da UCAR/NCAR quando disponíveis. As imagens de satélite provêm da NASA Worldview/GIBS (GOES e Himawari) ou da EUMETSAT Meteosat, consoante a cobertura do mapa.
Fontes: NASA EONET · USGS · NOAA NHC · JTWC · UCAR/NCAR ATCF · NASA Worldview/GIBS · EUMETSAT Meteosat · OpenStreetMap contributors